Meers, Oklahoma
Current Conditions -  °F | °C
As of 9:58 AM on Wednesday 26 Nov 2014 (Local Time) from KFSI Reporting Station
Clear Clear  
Wind Chill: 10°   Ceiling: Unl
Heat Index: 10°   Visibility: 10mi
Dew Point:   Wind: 18mph
Humidity: 53%   Direction: 350°N
Pressure: 30.19"   Gusts: 31mph
Location:  34.78°N, 98.58°W
Report Text: KFSI 261558Z AUTO 35016G27KT 10SM CLR 10/01 A3019 RMK AO2 PK WND 35027/24 SLP225 T01030012
Loading
Personal Weather Stations






























Interactive Weather Map New forecast layout! Learn more

10-Day Weather Forecast

Advertisements
Track Severe Weather on mobile